createdAt,value
2022-09-17T00:00:57.139Z,87.27
2022-09-17T00:03:29.930Z,87.39
2022-09-17T00:06:08.380Z,87.38
2022-09-17T00:08:42.344Z,87.29
2022-09-17T00:11:21.430Z,87.30
2022-09-17T00:13:54.309Z,87.42
2022-09-17T00:16:32.757Z,87.33
2022-09-17T00:19:08.381Z,87.40
2022-09-17T00:21:41.130Z,87.34
2022-09-17T00:24:14.628Z,87.52
2022-09-17T00:26:46.584Z,87.68
2022-09-17T00:29:18.840Z,87.73
2022-09-17T00:31:51.001Z,87.82
2022-09-17T00:34:23.146Z,87.92
2022-09-17T00:36:55.128Z,87.93
2022-09-17T00:39:27.041Z,87.98
2022-09-17T00:41:59.084Z,88.00
2022-09-17T00:44:43.044Z,88.17
2022-09-17T00:47:20.835Z,88.15
2022-09-17T00:49:56.061Z,88.22
2022-09-17T00:52:33.678Z,87.94
2022-09-17T00:55:25.283Z,88.15
2022-09-17T00:58:00.413Z,88.23
2022-09-17T01:00:33.218Z,88.29
2022-09-17T01:03:05.854Z,88.32
2022-09-17T01:05:55.923Z,88.25
2022-09-17T01:08:49.309Z,88.30
2022-09-17T01:11:40.519Z,87.94
2022-09-17T01:14:21.714Z,87.93
2022-09-17T01:17:17.483Z,87.82
2022-09-17T01:20:17.958Z,87.84
2022-09-17T01:22:58.619Z,87.86
2022-09-17T01:25:59.052Z,87.51
2022-09-17T01:28:45.694Z,86.96
2022-09-17T01:31:26.605Z,87.33
2022-09-17T01:34:04.690Z,87.43
2022-09-17T01:36:45.544Z,87.50
2022-09-17T01:39:26.504Z,87.36
2022-09-17T01:42:32.874Z,87.52
2022-09-17T01:45:27.646Z,87.43
2022-09-17T01:48:20.563Z,87.42
2022-09-17T01:50:58.109Z,87.47
2022-09-17T01:54:03.161Z,87.34
2022-09-17T01:56:41.044Z,87.46
2022-09-17T01:59:16.515Z,87.46
2022-09-17T02:01:51.744Z,87.39
2022-09-17T02:04:39.075Z,87.22
2022-09-17T02:07:14.244Z,87.18
2022-09-17T02:09:49.191Z,87.28
2022-09-17T02:12:24.261Z,87.28
2022-09-17T02:14:59.459Z,87.41
2022-09-17T02:17:36.021Z,87.38
2022-09-17T02:20:08.852Z,87.35
2022-09-17T02:22:56.707Z,87.31
2022-09-17T02:25:31.496Z,87.23
2022-09-17T02:28:22.370Z,87.20
2022-09-17T02:30:55.034Z,87.40
2022-09-17T02:33:29.853Z,87.62
2022-09-17T02:36:02.201Z,87.66
2022-09-17T02:38:34.369Z,87.77
2022-09-17T02:41:27.679Z,87.86
2022-09-17T02:44:02.452Z,87.92
2022-09-17T02:46:58.503Z,87.92
2022-09-17T02:49:51.369Z,87.89
2022-09-17T02:52:56.548Z,87.81
2022-09-17T02:55:37.274Z,87.81
2022-09-17T02:58:24.147Z,87.74
2022-09-17T03:00:58.964Z,87.71
2022-09-17T03:03:42.840Z,87.79
2022-09-17T03:06:15.334Z,87.71
2022-09-17T03:08:47.972Z,87.72
2022-09-17T03:11:19.819Z,87.83
2022-09-17T03:13:52.135Z,87.92
2022-09-17T03:16:24.181Z,88.05
2022-09-17T03:18:56.428Z,88.12
2022-09-17T03:21:28.525Z,88.13
2022-09-17T03:24:00.458Z,87.97
2022-09-17T03:26:32.488Z,87.98
2022-09-17T03:29:04.641Z,87.87
2022-09-17T03:31:36.716Z,87.81
2022-09-17T03:34:08.850Z,87.70
2022-09-17T03:36:40.755Z,87.64
2022-09-17T03:39:13.417Z,87.55
2022-09-17T03:41:45.577Z,87.52
2022-09-17T03:44:19.102Z,87.39
2022-09-17T03:46:52.006Z,87.25
2022-09-17T03:49:24.207Z,87.17
2022-09-17T03:51:56.353Z,87.01
2022-09-17T03:54:28.163Z,86.78
2022-09-17T03:57:00.068Z,86.51
2022-09-17T03:59:32.028Z,86.27
2022-09-17T04:02:04.426Z,86.04
2022-09-17T04:04:36.954Z,85.69
2022-09-17T04:07:10.729Z,85.39
2022-09-17T04:09:42.802Z,85.01
2022-09-17T04:12:14.891Z,84.64
2022-09-17T04:14:46.755Z,84.19
2022-09-17T04:17:18.673Z,84.00
2022-09-17T04:19:50.599Z,83.61
2022-09-17T04:22:22.778Z,83.25
2022-09-17T04:24:54.889Z,82.93
2022-09-17T04:27:27.045Z,82.67
2022-09-17T04:29:59.263Z,81.92
2022-09-17T04:32:33.196Z,81.49
2022-09-17T04:35:05.791Z,80.86
2022-09-17T04:37:38.150Z,80.21
2022-09-17T04:40:11.019Z,79.88
2022-09-17T04:42:43.187Z,79.18
2022-09-17T04:45:15.209Z,78.71
2022-09-17T04:47:47.122Z,78.37
2022-09-17T04:50:20.739Z,77.84
2022-09-17T04:52:52.796Z,77.08
2022-09-17T04:55:24.945Z,76.59
2022-09-17T04:57:56.876Z,76.23
2022-09-17T05:00:28.846Z,76.24
2022-09-17T05:03:01.022Z,74.94
2022-09-17T05:05:33.109Z,73.42
2022-09-17T05:08:05.391Z,70.85
2022-09-17T05:10:37.676Z,65.51
2022-09-17T05:13:10.099Z,62.85
2022-09-17T05:15:42.359Z,62.12
2022-09-17T05:18:14.618Z,63.08
2022-09-17T05:20:46.559Z,63.55
2022-09-17T05:23:18.621Z,64.43
2022-09-17T05:25:50.761Z,62.44
2022-09-17T05:28:22.962Z,62.08
2022-09-17T05:30:54.914Z,61.56
2022-09-17T05:33:27.133Z,61.59
2022-09-17T05:36:00.222Z,62.16
2022-09-17T05:38:32.367Z,62.40
2022-09-17T05:41:08.197Z,60.21
2022-09-17T05:43:40.378Z,59.47
2022-09-17T05:46:12.661Z,57.21
2022-09-17T05:48:44.707Z,57.21
2022-09-17T05:51:16.870Z,56.50
2022-09-17T05:53:48.957Z,55.83
2022-09-17T05:56:22.028Z,54.84
2022-09-17T05:58:58.487Z,53.44
2022-09-17T06:01:30.801Z,51.69
2022-09-17T06:04:04.739Z,51.96
2022-09-17T06:06:37.942Z,53.06
2022-09-17T06:09:11.237Z,53.68
2022-09-17T06:11:43.115Z,53.68
2022-09-17T06:14:15.666Z,52.55
2022-09-17T06:16:48.326Z,52.24
2022-09-17T06:19:20.447Z,50.55
2022-09-17T06:21:52.647Z,50.04
2022-09-17T06:24:24.571Z,48.69
2022-09-17T06:26:56.540Z,48.99
2022-09-17T06:29:28.663Z,48.83
2022-09-17T06:32:02.347Z,49.56
2022-09-17T06:34:34.788Z,51.20
2022-09-17T06:37:07.671Z,51.32
2022-09-17T06:39:40.432Z,52.95
2022-09-17T06:42:13.314Z,53.36
2022-09-17T06:44:46.360Z,52.78
2022-09-17T06:47:19.108Z,50.38
2022-09-17T06:49:51.860Z,50.44
2022-09-17T06:52:24.142Z,49.58
2022-09-17T06:54:56.747Z,49.35
2022-09-17T06:57:29.297Z,47.96
2022-09-17T07:00:01.743Z,46.79
2022-09-17T07:02:34.264Z,46.21
2022-09-17T07:05:07.124Z,45.76
2022-09-17T07:07:41.059Z,45.61
2022-09-17T07:10:13.748Z,45.60
2022-09-17T07:12:49.790Z,45.51
2022-09-17T07:15:19.928Z,46.37
2022-09-17T07:17:51.962Z,46.67
2022-09-17T07:20:24.502Z,47.01
2022-09-17T07:23:00.073Z,48.20
2022-09-17T07:25:32.446Z,47.78
2022-09-17T07:28:04.921Z,47.02
2022-09-17T07:30:37.091Z,47.00
2022-09-17T07:33:09.359Z,46.68
2022-09-17T07:35:41.827Z,47.36
2022-09-17T07:38:14.138Z,47.65
2022-09-17T07:40:47.905Z,47.53
2022-09-17T07:43:20.843Z,46.72
2022-09-17T07:45:53.432Z,45.82
2022-09-17T07:48:26.198Z,45.63
2022-09-17T07:50:58.364Z,46.00
2022-09-17T07:53:30.439Z,45.25
2022-09-17T07:56:03.183Z,45.90
2022-09-17T07:58:37.787Z,45.28
2022-09-17T08:01:12.699Z,45.31
2022-09-17T08:03:46.889Z,46.25
2022-09-17T08:06:21.237Z,46.82
2022-09-17T08:08:53.221Z,46.59
2022-09-17T08:11:51.833Z,46.09
2022-09-17T08:14:02.014Z,45.56
2022-09-17T08:16:34.238Z,45.49
2022-09-17T08:19:06.102Z,44.99
2022-09-17T08:21:38.330Z,43.57
2022-09-17T08:24:10.313Z,44.17
2022-09-17T08:26:42.487Z,45.59
2022-09-17T08:29:14.629Z,45.76
2022-09-17T08:31:46.647Z,45.88
2022-09-17T08:34:19.094Z,45.98
2022-09-17T08:36:51.338Z,45.74
2022-09-17T08:39:23.465Z,46.66
2022-09-17T08:41:58.545Z,47.36
2022-09-17T08:44:40.792Z,47.57
2022-09-17T08:47:27.922Z,47.76
2022-09-17T08:50:04.020Z,48.38
2022-09-17T08:52:44.912Z,48.81
2022-09-17T08:55:42.586Z,48.23
2022-09-17T08:58:23.399Z,48.47
2022-09-17T09:01:14.961Z,48.30
2022-09-17T09:03:52.755Z,47.67
2022-09-17T09:06:27.737Z,46.86
2022-09-17T09:09:08.510Z,47.52
2022-09-17T09:11:43.143Z,47.92
2022-09-17T09:14:24.033Z,45.29
2022-09-17T09:16:57.963Z,44.30
2022-09-17T09:19:35.740Z,44.44
2022-09-17T09:22:28.770Z,45.09
2022-09-17T09:25:25.275Z,45.56
2022-09-17T09:28:28.066Z,44.98
2022-09-17T09:31:08.990Z,45.05
2022-09-17T09:33:47.760Z,43.18
2022-09-17T09:36:20.574Z,42.89
2022-09-17T09:38:56.761Z,41.33
2022-09-17T09:41:36.375Z,41.88
2022-09-17T09:44:15.043Z,40.07
2022-09-17T09:47:16.113Z,42.24
2022-09-17T09:50:24.892Z,40.65
2022-09-17T09:53:05.862Z,38.40
2022-09-17T09:55:40.788Z,38.35
2022-09-17T09:58:15.916Z,38.34
2022-09-17T10:00:49.687Z,44.26
2022-09-17T10:03:25.305Z,39.57
2022-09-17T10:06:09.300Z,37.78
2022-09-17T10:08:44.771Z,37.72
2022-09-17T10:11:26.135Z,36.67
2022-09-17T10:14:29.192Z,36.63
2022-09-17T10:17:26.737Z,36.77
2022-09-17T10:20:06.756Z,36.42
2022-09-17T10:22:47.169Z,35.29
2022-09-17T10:25:31.018Z,35.43
2022-09-17T10:28:06.680Z,35.50
2022-09-17T10:30:41.955Z,35.73
2022-09-17T10:33:17.587Z,35.41
2022-09-17T10:35:58.534Z,35.41
2022-09-17T10:38:36.698Z,35.89
2022-09-17T10:41:13.405Z,35.79
2022-09-17T10:43:46.147Z,35.49
2022-09-17T10:46:30.688Z,35.48
2022-09-17T10:49:10.399Z,34.13
2022-09-17T10:51:42.537Z,35.34
2022-09-17T10:54:26.751Z,35.32
2022-09-17T10:57:01.989Z,34.95
2022-09-17T11:00:01.131Z,35.64
2022-09-17T11:02:40.603Z,35.69
2022-09-17T11:05:40.752Z,35.97
2022-09-17T11:08:24.509Z,36.78
2022-09-17T11:11:04.089Z,36.95
2022-09-17T11:13:51.148Z,37.28
2022-09-17T11:16:38.801Z,36.54
2022-09-17T11:19:26.306Z,37.22
2022-09-17T11:22:13.471Z,37.54
2022-09-17T11:25:05.026Z,36.24
2022-09-17T11:27:58.729Z,36.80
2022-09-17T11:30:36.755Z,37.82
2022-09-17T11:33:37.655Z,38.32
2022-09-17T11:36:24.539Z,38.60
2022-09-17T11:38:59.775Z,38.88
2022-09-17T11:41:38.713Z,38.89
2022-09-17T11:44:20.384Z,38.21
2022-09-17T11:46:58.690Z,38.29
2022-09-17T11:49:54.811Z,38.30
2022-09-17T11:52:30.150Z,37.46
2022-09-17T11:55:05.186Z,37.77
2022-09-17T11:57:40.442Z,36.44
2022-09-17T12:00:18.610Z,36.89
2022-09-17T12:03:10.988Z,37.22
2022-09-17T12:05:54.752Z,37.03
2022-09-17T12:08:56.794Z,37.33
2022-09-17T12:12:00.572Z,38.69
2022-09-17T12:14:47.637Z,38.97
2022-09-17T12:17:31.636Z,37.67
2022-09-17T12:20:10.227Z,37.56
2022-09-17T12:22:45.657Z,37.54
2022-09-17T12:25:18.309Z,37.71
2022-09-17T12:27:55.600Z,38.25
2022-09-17T12:30:39.673Z,39.01
2022-09-17T12:33:30.222Z,39.33
2022-09-17T12:36:08.316Z,39.76
2022-09-17T12:39:03.059Z,40.11
2022-09-17T12:41:51.803Z,40.13
2022-09-17T12:44:45.304Z,37.12
2022-09-17T12:47:39.681Z,35.39
2022-09-17T12:50:17.903Z,34.88
2022-09-17T12:52:57.605Z,35.63
2022-09-17T12:55:49.260Z,36.28
2022-09-17T12:58:43.597Z,37.29
2022-09-17T13:01:19.747Z,38.06
2022-09-17T13:03:57.937Z,38.79
2022-09-17T13:06:35.753Z,38.44
2022-09-17T13:09:26.148Z,38.83
2022-09-17T13:12:01.676Z,39.09
2022-09-17T13:14:59.034Z,39.11
2022-09-17T13:17:41.465Z,39.29
2022-09-17T13:20:19.446Z,39.39
2022-09-17T13:22:54.310Z,40.21
2022-09-17T13:25:27.370Z,41.96
2022-09-17T13:28:11.921Z,41.63
2022-09-17T13:30:58.981Z,41.46
2022-09-17T13:33:51.658Z,41.27
2022-09-17T13:36:36.072Z,40.16
2022-09-17T13:39:13.825Z,36.59
2022-09-17T13:41:46.251Z,35.08
2022-09-17T13:44:21.456Z,35.10
2022-09-17T13:46:54.812Z,36.01
2022-09-17T13:49:27.497Z,36.96
2022-09-17T13:51:59.909Z,37.44
2022-09-17T13:54:41.780Z,37.89
2022-09-17T13:57:16.657Z,37.74
2022-09-17T13:59:57.590Z,36.97
2022-09-17T14:02:32.832Z,34.99
2022-09-17T14:05:26.709Z,35.45
2022-09-17T14:08:13.825Z,36.64
2022-09-17T14:10:47.579Z,37.27
2022-09-17T14:13:31.395Z,38.51
2022-09-17T14:16:03.705Z,39.40
2022-09-17T14:18:38.363Z,40.47
2022-09-17T14:21:23.888Z,40.77
2022-09-17T14:24:02.252Z,41.72
2022-09-17T14:26:46.263Z,42.44
2022-09-17T14:29:21.719Z,42.40
2022-09-17T14:31:53.756Z,43.24
2022-09-17T14:34:28.913Z,43.09
2022-09-17T14:37:01.213Z,43.97
2022-09-17T14:39:41.465Z,45.23
2022-09-17T14:42:19.836Z,54.88
2022-09-17T14:45:05.257Z,56.17
2022-09-17T14:47:37.819Z,58.49
2022-09-17T14:50:27.409Z,61.90
2022-09-17T14:52:59.814Z,63.92
2022-09-17T14:55:33.799Z,68.87
2022-09-17T14:58:06.582Z,70.22
2022-09-17T15:00:40.277Z,68.50
2022-09-17T15:03:23.851Z,67.69
2022-09-17T15:05:57.035Z,67.21
2022-09-17T15:08:30.377Z,65.61
2022-09-17T15:11:05.009Z,65.10
2022-09-17T15:13:40.293Z,64.17
2022-09-17T15:16:21.397Z,64.63
2022-09-17T15:18:56.416Z,62.54
2022-09-17T15:21:39.160Z,62.54
2022-09-17T15:24:26.076Z,61.10
2022-09-17T15:27:00.957Z,60.42
2022-09-17T15:29:35.064Z,60.42
2022-09-17T15:32:07.840Z,59.25
2022-09-17T15:34:40.916Z,58.46
2022-09-17T15:37:24.850Z,58.20
2022-09-17T15:39:58.985Z,58.82
2022-09-17T15:42:32.164Z,58.82
2022-09-17T15:45:21.518Z,58.67
2022-09-17T15:48:07.908Z,59.23
2022-09-17T15:50:41.291Z,60.00
2022-09-17T15:53:16.172Z,60.62
2022-09-17T15:56:07.735Z,61.23
2022-09-17T15:58:46.066Z,61.04
2022-09-17T16:01:21.331Z,61.39
2022-09-17T16:04:11.428Z,61.39
2022-09-17T16:07:10.380Z,62.33
2022-09-17T16:09:54.348Z,62.67
2022-09-17T16:12:31.830Z,63.07
2022-09-17T16:15:05.242Z,63.71
2022-09-17T16:17:48.324Z,64.48
2022-09-17T16:20:24.962Z,65.38
2022-09-17T16:22:57.391Z,65.61
2022-09-17T16:25:30.572Z,66.03
2022-09-17T16:28:05.746Z,66.73
2022-09-17T16:30:38.575Z,66.65
2022-09-17T16:33:13.583Z,67.06
2022-09-17T16:35:46.444Z,67.30
2022-09-17T16:38:18.549Z,67.11
2022-09-17T16:40:51.794Z,67.51
2022-09-17T16:43:24.716Z,67.05
2022-09-17T16:46:08.850Z,67.24
2022-09-17T16:48:41.919Z,66.98
2022-09-17T16:51:15.528Z,66.84
2022-09-17T16:53:48.162Z,66.14
2022-09-17T16:56:21.348Z,66.01
2022-09-17T16:58:58.250Z,65.99
2022-09-17T17:01:30.602Z,66.16
2022-09-17T17:04:03.400Z,65.76
2022-09-17T17:06:35.985Z,65.85
2022-09-17T17:09:08.824Z,65.76
2022-09-17T17:11:41.435Z,65.44
2022-09-17T17:14:17.389Z,65.40
2022-09-17T17:16:49.668Z,65.66
2022-09-17T17:19:22.396Z,65.66
2022-09-17T17:21:55.748Z,65.74
2022-09-17T17:24:28.805Z,65.60
2022-09-17T17:27:02.251Z,65.70
2022-09-17T17:29:35.851Z,65.76
2022-09-17T17:32:10.977Z,65.32
2022-09-17T17:34:43.242Z,65.20
2022-09-17T17:37:16.429Z,65.33
2022-09-17T17:39:49.438Z,65.17
2022-09-17T17:42:23.411Z,64.70
2022-09-17T17:44:56.091Z,64.46
2022-09-17T17:47:29.185Z,64.17
2022-09-17T17:50:02.285Z,64.25
2022-09-17T17:52:34.740Z,62.22
2022-09-17T17:55:08.123Z,61.88
2022-09-17T17:57:41.305Z,60.95
2022-09-17T18:00:14.914Z,60.75
2022-09-17T18:02:47.868Z,60.84
2022-09-17T18:05:21.096Z,60.56
2022-09-17T18:07:53.293Z,60.95
2022-09-17T18:10:31.134Z,60.94
2022-09-17T18:13:06.665Z,60.65
2022-09-17T18:15:39.736Z,60.91
2022-09-17T18:18:12.217Z,61.39
2022-09-17T18:20:45.153Z,61.55
2022-09-17T18:23:17.838Z,61.63
2022-09-17T18:26:00.740Z,61.70
2022-09-17T18:28:35.517Z,61.86
2022-09-17T18:31:10.983Z,61.78
2022-09-17T18:33:44.177Z,62.11
2022-09-17T18:36:16.976Z,61.98
2022-09-17T18:38:49.562Z,61.66
2022-09-17T18:41:22.252Z,61.65
2022-09-17T18:43:54.391Z,62.14
2022-09-17T18:46:26.594Z,62.14
2022-09-17T18:49:01.312Z,61.48
2022-09-17T18:51:34.694Z,61.59
2022-09-17T18:54:07.843Z,62.25
2022-09-17T18:56:42.035Z,62.54
2022-09-17T18:59:14.472Z,62.99
2022-09-17T19:01:46.631Z,63.34
2022-09-17T19:04:18.858Z,63.53
2022-09-17T19:06:51.469Z,63.84
2022-09-17T19:09:24.858Z,64.10
2022-09-17T19:11:57.191Z,64.06
2022-09-17T19:14:29.208Z,64.58
2022-09-17T19:17:04.249Z,64.71
2022-09-17T19:19:38.121Z,64.80
2022-09-17T19:22:11.010Z,64.88
2022-09-17T19:24:46.169Z,65.27
2022-09-17T19:27:18.380Z,65.45
2022-09-17T19:29:51.311Z,65.80
2022-09-17T19:32:23.440Z,65.95
2022-09-17T19:34:55.971Z,66.11
2022-09-17T19:37:27.996Z,66.26
2022-09-17T19:40:00.951Z,66.47
2022-09-17T19:42:33.844Z,66.65
2022-09-17T19:45:06.235Z,66.48
2022-09-17T19:47:38.571Z,66.78
2022-09-17T19:50:10.930Z,66.84
2022-09-17T19:52:43.073Z,66.96
2022-09-17T19:55:15.122Z,67.08
2022-09-17T19:57:47.553Z,67.25
2022-09-17T20:00:19.711Z,67.49
2022-09-17T20:02:51.975Z,67.75
2022-09-17T20:05:24.185Z,68.02
2022-09-17T20:07:56.538Z,68.04
2022-09-17T20:10:30.361Z,68.16
2022-09-17T20:13:02.659Z,68.04
2022-09-17T20:15:37.927Z,68.16
2022-09-17T20:18:09.936Z,68.48
2022-09-17T20:20:43.067Z,68.79
2022-09-17T20:23:15.102Z,69.19
2022-09-17T20:25:54.651Z,69.54
2022-09-17T20:28:26.636Z,69.72
2022-09-17T20:31:08.602Z,70.09
2022-09-17T20:33:43.086Z,70.47
2022-09-17T20:36:18.075Z,70.72
2022-09-17T20:41:25.349Z,70.86
2022-09-17T20:43:59.269Z,71.19
2022-09-17T20:46:31.529Z,71.36
2022-09-17T20:49:03.744Z,71.38
2022-09-17T20:51:36.959Z,71.46
2022-09-17T20:54:10.930Z,71.47
2022-09-17T20:56:44.792Z,71.65
2022-09-17T20:59:18.895Z,71.85
2022-09-17T21:01:51.768Z,72.13
2022-09-17T21:04:25.896Z,72.39
2022-09-17T21:06:57.964Z,72.50
2022-09-17T21:09:29.856Z,72.59
2022-09-17T21:12:02.157Z,72.67
2022-09-17T21:14:34.263Z,72.99
2022-09-17T21:17:06.863Z,73.02
2022-09-17T21:19:39.687Z,73.22
2022-09-17T21:22:13.038Z,73.17
2022-09-17T21:24:45.047Z,73.45
2022-09-17T21:27:17.076Z,73.62
2022-09-17T21:29:49.245Z,73.73
2022-09-17T21:32:21.280Z,73.97
2022-09-17T21:34:53.631Z,74.08
2022-09-17T21:37:26.793Z,74.22
2022-09-17T21:39:59.000Z,74.29
2022-09-17T21:42:33.062Z,74.48
2022-09-17T21:45:06.234Z,74.58
2022-09-17T21:47:39.558Z,74.68
2022-09-17T21:50:11.675Z,74.93
2022-09-17T21:52:44.040Z,75.00
2022-09-17T21:55:16.294Z,74.78
2022-09-17T21:57:48.389Z,74.77
2022-09-17T22:00:23.330Z,74.80
2022-09-17T22:02:54.561Z,74.68
2022-09-17T22:05:26.745Z,74.50
2022-09-17T22:07:58.787Z,74.51
2022-09-17T22:10:30.922Z,74.52
2022-09-17T22:13:02.964Z,74.70
2022-09-17T22:15:35.179Z,74.73
2022-09-17T22:18:12.898Z,74.91
2022-09-17T22:20:42.293Z,75.01
2022-09-17T22:23:14.405Z,74.82
2022-09-17T22:25:46.496Z,74.79
2022-09-17T22:28:21.369Z,74.63
2022-09-17T22:30:53.920Z,74.68
2022-09-17T22:33:26.922Z,74.65
2022-09-17T22:36:07.643Z,74.84
2022-09-17T22:38:40.569Z,74.97
2022-09-17T22:41:17.685Z,75.13
2022-09-17T22:43:51.457Z,75.20
2022-09-17T22:46:26.065Z,75.28
2022-09-17T22:48:58.725Z,75.47
2022-09-17T22:51:31.584Z,75.60
2022-09-17T22:54:03.879Z,75.76
2022-09-17T22:56:36.673Z,75.96
2022-09-17T22:59:09.579Z,75.97
2022-09-17T23:01:42.284Z,75.78
2022-09-17T23:04:14.461Z,75.79
2022-09-17T23:06:46.707Z,75.78
2022-09-17T23:09:18.845Z,75.68
2022-09-17T23:11:51.168Z,75.88
2022-09-17T23:14:23.932Z,75.92
2022-09-17T23:16:55.887Z,75.87
2022-09-17T23:19:29.220Z,75.90
2022-09-17T23:22:01.371Z,76.02
2022-09-17T23:24:34.539Z,76.04
2022-09-17T23:27:06.741Z,76.06
2022-09-17T23:29:38.693Z,76.05
2022-09-17T23:32:12.263Z,76.22
2022-09-17T23:34:44.855Z,76.38
2022-09-17T23:37:18.509Z,76.49
2022-09-17T23:39:50.990Z,76.34
2022-09-17T23:42:23.119Z,76.58
2022-09-17T23:44:55.182Z,76.66
2022-09-17T23:47:27.948Z,76.81
2022-09-17T23:50:00.284Z,77.11
2022-09-17T23:52:34.027Z,77.22
2022-09-17T23:55:07.622Z,77.46
2022-09-17T23:57:40.040Z,77.76
